Terminal Aerodrome Forecast
Issued by NWS

Home | Current Version | Previous Version | Text Only | Print | Product List | Glossary On
Versions: 1 2 3 4 5 6 7 8 9 10 11 12 13 14 15
000
FTUS44 KJAN 172343
TAFGTR
TAF
KGTR 172343Z 1800/1824 07004KT P6SM FEW040 SCT080
     FM180500 08005KT 5SM BR OVC007
     FM181000 07005KT 3SM BR OVC004
     FM181600 11008KT 6SM BR BKN010 OVC020
     FM181900 08005KT 6SM -RA VCTS SCT020 OVC050CB=

USA.gov is the U.S. government's official web portal to all federal, state and local government web resources and services.